CheckWX is a tool to help pilots better visualize weather data.  It is not intended as a substitute for an official pre-flight weather briefing.

21:35:01 UTC

SKBO TAF
El Dorado International Airport
Bogota, Colombia
TAF SKBO 021030Z 0212/0312 VRB02KT 9999 SCT015 BKN070 TEMPO 0212/0214 8000 DZ BECMG 0215/0217 27008KT PROB40 TEMPO 0216/0219 6000 DZ BKN017TCU TX18/0218Z TN10/0311Z

Apr-2@
12:00 UTC

Apr-2 @ 12:00 UTC

Apr-2@
15:00 UTC

Apr-2 @ 15:00 UTC

TAF SKBO 021030Z 0212/0312 VRB02KT 9999 SCT015 BKN070

Expired

Wind
  • Variable at 2 KTS
Cloud Levels
  • Scattered at 1,500' AGL
  • Broken at 7,000' AGL

Apr-2@
12:00 UTC

Apr-2 @ 12:00 UTC

Apr-2@
14:00 UTC

Apr-2 @ 14:00 UTC

TEMPO 0212/0214 8000 DZ

Expired

Conditions
Drizzle
Cloud Levels

Apr-2@
15:00 UTC

Apr-2 @ 15:00 UTC

Apr-3@
12:00 UTC

Apr-3 @ 12:00 UTC

BECMG 0215/0217 27008KT

Becoming

Becoming Conditions expected by Thu, Apr 2, 2020 @ 17:00 UTC

Wind
  • 270° at 8 KTS
Cloud Levels
  • Scattered at 1,500' AGL
  • Broken at 7,000' AGL

Apr-2@
16:00 UTC

Apr-2 @ 16:00 UTC

Apr-2@
19:00 UTC

Apr-2 @ 19:00 UTC

PROB40 TEMPO 0216/0219 6000 DZ BKN017TCU TX18/0218Z TN10/0311Z

Expired

Conditions
Drizzle
Cloud Levels
  • Broken at 1,700' AGL